Time;durP1;ratioP1;P1;durP2;ratioP2;P2;SDS_P1;SDS_P2;PMS_P1;PMS_P2;Temp;Humidity;BMP_temperature;BMP_pressure;BME280_temperature;BME280_humidity;BME280_pressure;Samples;Min_cycle;Max_cycle;Signal;HPM_P1;HPM_P2
2022/05/18 00:00:20;;;;;;;8.15;4.32;;;;;;;;;;6186571;23;20441;-83
2022/05/18 00:02:46;;;;;;;10.02;4.05;;;;;;;;;;6186603;23;20005;-82
2022/05/18 00:05:13;;;;;;;8.80;3.67;;;;;;;;;;6160369;23;20009;-82
2022/05/18 00:07:39;;;;;;;9.73;3.20;;;;;;;;;;6160548;23;20441;-84
2022/05/18 00:10:06;;;;;;;9.30;3.90;;;;;;;;;;6186750;23;20009;-84
2022/05/18 00:12:32;;;;;;;6.97;3.40;;;;;;;;;;6160356;23;20422;-83
2022/05/18 00:14:58;;;;;;;8.77;3.72;;;;;;;;;;6186734;23;20430;-82
2022/05/18 00:17:24;;;;;;;6.15;3.15;;;;;;;;;;6160671;23;20383;-82
2022/05/18 00:19:50;;;;;;;7.03;3.20;;;;;;;;;;6160805;23;20005;-85
2022/05/18 00:22:16;;;;;;;4.93;3.10;;;;;;;;;;6186803;23;20008;-84
2022/05/18 00:24:43;;;;;;;14.65;3.40;;;;;;;;;;6160488;23;20004;-84
2022/05/18 00:27:09;;;;;;;13.95;3.17;;;;;;;;;;6160508;23;20005;-82
2022/05/18 00:29:35;;;;;;;14.60;3.70;;;;;;;;;;6160151;23;20020;-84
2022/05/18 00:32:01;;;;;;;7.88;3.35;;;;;;;;;;6160487;23;20005;-83
2022/05/18 00:34:27;;;;;;;5.78;3.42;;;;;;;;;;6130372;23;20025;-83
2022/05/18 00:36:53;;;;;;;7.45;3.50;;;;;;;;;;6129956;23;20340;-81
2022/05/18 00:39:21;;;;;;;9.82;3.30;;;;;;;;;;6156622;23;20005;-82
2022/05/18 00:41:47;;;;;;;7.63;3.40;;;;;;;;;;6128527;23;20002;-82
2022/05/18 00:44:14;;;;;;;7.38;4.30;;;;;;;;;;6156946;23;20001;-85
2022/05/18 00:46:40;;;;;;;8.90;3.60;;;;;;;;;;6127053;23;20090;-82
2022/05/18 00:49:07;;;;;;;6.78;3.10;;;;;;;;;;6156660;23;20009;-83
2022/05/18 00:51:50;;;;;;;6.50;3.38;;;;;;;;;;6125793;23;20068;-83
2022/05/18 00:54:24;;;;;;;10.00;3.80;;;;;;;;;;6125722;23;20089;-82
2022/05/18 00:56:54;;;;;;;8.82;4.10;;;;;;;;;;6129344;23;20491;-85
2022/05/18 00:59:24;;;;;;;10.15;4.13;;;;;;;;;;6156567;23;20054;-80
2022/05/18 01:01:51;;;;;;;8.38;5.13;;;;;;;;;;6129268;23;20010;-84
2022/05/18 01:04:18;;;;;;;7.82;4.35;;;;;;;;;;6125776;23;20061;-84
2022/05/18 01:06:46;;;;;;;8.57;4.82;;;;;;;;;;6127809;23;20002;-84
2022/05/18 01:09:18;;;;;;;9.75;4.40;;;;;;;;;;6125682;23;20016;-84
2022/05/18 01:11:44;;;;;;;10.15;5.20;;;;;;;;;;6127832;23;20010;-84
2022/05/18 01:14:19;;;;;;;8.25;5.07;;;;;;;;;;6125611;23;20471;-84
2022/05/18 01:16:45;;;;;;;9.20;4.35;;;;;;;;;;6127815;23;20084;-83
2022/05/18 01:19:28;;;;;;;8.68;5.10;;;;;;;;;;6125740;23;20336;-83
2022/05/18 01:22:00;;;;;;;9.10;5.27;;;;;;;;;;6123669;23;20068;-85
2022/05/18 01:24:34;;;;;;;9.40;4.97;;;;;;;;;;6125609;23;20021;-82
2022/05/18 01:27:01;;;;;;;11.45;4.35;;;;;;;;;;6130555;23;20009;-84
2022/05/18 01:29:30;;;;;;;8.40;4.57;;;;;;;;;;6130328;23;20550;-84
2022/05/18 01:31:56;;;;;;;10.77;4.80;;;;;;;;;;6130664;23;20048;-84
2022/05/18 01:34:24;;;;;;;8.75;4.35;;;;;;;;;;6147750;23;20435;-82
2022/05/18 01:36:50;;;;;;;6.85;3.95;;;;;;;;;;6184405;23;20450;-82
2022/05/18 01:39:37;;;;;;;10.55;4.47;;;;;;;;;;6160189;23;20426;-84
2022/05/18 01:42:06;;;;;;;6.72;4.15;;;;;;;;;;6186778;23;20005;-82
2022/05/18 01:44:36;;;;;;;7.45;3.95;;;;;;;;;;6160127;23;20084;-83
2022/05/18 01:47:02;;;;;;;7.50;4.07;;;;;;;;;;6160010;23;20181;-82
2022/05/18 01:49:29;;;;;;;5.20;3.70;;;;;;;;;;6159909;23;20013;-83
2022/05/18 01:51:56;;;;;;;8.73;4.60;;;;;;;;;;6159852;23;20442;-83
2022/05/18 01:54:22;;;;;;;8.55;4.43;;;;;;;;;;6160130;23;20012;-83
2022/05/18 01:56:48;;;;;;;7.25;4.43;;;;;;;;;;6186251;23;19997;-83
2022/05/18 01:59:14;;;;;;;6.70;4.57;;;;;;;;;;6160191;23;20009;-84
2022/05/18 02:01:41;;;;;;;7.47;4.40;;;;;;;;;;6160054;23;20084;-83
2022/05/18 02:04:07;;;;;;;8.63;4.43;;;;;;;;;;6159973;23;20016;-84
2022/05/18 02:06:34;;;;;;;8.05;4.47;;;;;;;;;;6186183;23;20009;-82
2022/05/18 02:09:00;;;;;;;8.15;4.28;;;;;;;;;;6159555;23;20454;-84
2022/05/18 02:11:27;;;;;;;8.07;4.72;;;;;;;;;;6161428;23;20087;-84
2022/05/18 02:13:53;;;;;;;9.60;5.00;;;;;;;;;;6161914;23;20005;-82
2022/05/18 02:16:20;;;;;;;8.50;4.60;;;;;;;;;;6162052;23;20013;-84
2022/05/18 02:18:46;;;;;;;7.18;4.53;;;;;;;;;;6188084;23;19997;-82
2022/05/18 02:21:13;;;;;;;7.97;4.65;;;;;;;;;;6161687;23;20009;-84
2022/05/18 02:23:40;;;;;;;8.98;4.68;;;;;;;;;;6161964;23;20033;-82
2022/05/18 02:26:07;;;;;;;7.10;4.78;;;;;;;;;;6161782;23;20005;-84
2022/05/18 02:28:34;;;;;;;6.57;4.60;;;;;;;;;;6161614;23;20019;-82
2022/05/18 02:31:00;;;;;;;7.57;4.50;;;;;;;;;;6161687;23;20012;-82
2022/05/18 02:33:26;;;;;;;7.70;4.45;;;;;;;;;;6161590;23;20013;-82
2022/05/18 02:35:52;;;;;;;6.18;4.40;;;;;;;;;;6161703;23;20092;-84
2022/05/18 02:38:18;;;;;;;6.10;4.40;;;;;;;;;;6161630;23;20028;-83
2022/05/18 02:40:44;;;;;;;6.22;4.35;;;;;;;;;;6161293;23;20009;-84
2022/05/18 02:43:11;;;;;;;7.22;4.32;;;;;;;;;;6187897;23;19997;-83
2022/05/18 02:45:37;;;;;;;7.75;4.40;;;;;;;;;;6161489;23;20009;-84
2022/05/18 02:48:03;;;;;;;7.35;4.68;;;;;;;;;;6161570;23;20005;-84
2022/05/18 02:50:29;;;;;;;7.63;4.63;;;;;;;;;;6187651;23;20044;-82
2022/05/18 02:52:55;;;;;;;8.10;5.13;;;;;;;;;;6187861;23;20001;-84
2022/05/18 02:58:06;;;;;;;7.75;4.60;;;;;;;;;;6187664;23;20016;-84
2022/05/18 03:00:34;;;;;;;7.57;4.65;;;;;;;;;;6187357;23;20004;-82
2022/05/18 03:03:00;;;;;;;8.75;5.07;;;;;;;;;;6161288;23;20001;-81
2022/05/18 03:05:26;;;;;;;9.68;5.22;;;;;;;;;;6161399;23;20477;-82
2022/05/18 03:07:52;;;;;;;7.93;4.45;;;;;;;;;;6161490;23;20055;-84
2022/05/18 03:10:18;;;;;;;9.18;4.82;;;;;;;;;;6161189;23;20064;-83
2022/05/18 03:12:45;;;;;;;8.27;4.65;;;;;;;;;;6161151;23;20005;-84
2022/05/18 03:15:12;;;;;;;7.93;4.72;;;;;;;;;;6187170;23;20012;-82
2022/05/18 03:17:38;;;;;;;6.97;4.80;;;;;;;;;;6187438;23;20019;-83
2022/05/18 03:20:05;;;;;;;7.15;4.82;;;;;;;;;;6161007;23;20044;-85
2022/05/18 03:25:15;;;;;;;6.75;4.60;;;;;;;;;;6187149;23;20019;-83
2022/05/18 03:27:45;;;;;;;8.80;5.13;;;;;;;;;;6161104;23;20001;-85
2022/05/18 03:30:12;;;;;;;7.30;4.53;;;;;;;;;;6160845;23;20095;-85
2022/05/18 03:32:39;;;;;;;5.57;4.00;;;;;;;;;;6160670;23;20054;-85
2022/05/18 03:35:06;;;;;;;7.90;4.70;;;;;;;;;;6160865;23;20542;-84
2022/05/18 03:37:33;;;;;;;6.35;4.90;;;;;;;;;;6160812;23;20001;-83
2022/05/18 03:39:59;;;;;;;7.75;5.00;;;;;;;;;;6187401;23;20001;-85
2022/05/18 03:42:26;;;;;;;7.35;5.22;;;;;;;;;;6161005;23;20032;-84
2022/05/18 03:44:52;;;;;;;7.28;4.05;;;;;;;;;;6187512;23;20001;-85
2022/05/18 03:47:18;;;;;;;6.72;4.57;;;;;;;;;;6186951;23;20020;-82
2022/05/18 03:49:44;;;;;;;8.13;4.50;;;;;;;;;;6161054;23;20013;-84
2022/05/18 03:52:10;;;;;;;9.57;4.60;;;;;;;;;;6161194;23;20001;-84
2022/05/18 03:54:37;;;;;;;7.45;4.40;;;;;;;;;;6160832;23;20020;-84
2022/05/18 03:57:06;;;;;;;7.68;3.85;;;;;;;;;;6160731;23;20043;-83
2022/05/18 03:59:32;;;;;;;7.25;4.20;;;;;;;;;;6187137;23;20059;-84
2022/05/18 04:01:58;;;;;;;6.82;4.53;;;;;;;;;;6160599;23;20415;-83
2022/05/18 04:04:25;;;;;;;8.30;4.90;;;;;;;;;;6160847;23;20088;-84
2022/05/18 04:06:51;;;;;;;7.72;4.32;;;;;;;;;;6160857;23;20005;-85
2022/05/18 04:09:17;;;;;;;7.85;4.63;;;;;;;;;;6160717;23;20013;-84
2022/05/18 04:11:44;;;;;;;7.68;4.53;;;;;;;;;;6160874;23;20426;-84
2022/05/18 04:14:10;;;;;;;9.70;5.15;;;;;;;;;;6160515;23;20441;-85
2022/05/18 04:16:36;;;;;;;8.10;4.88;;;;;;;;;;6186696;23;20009;-84
2022/05/18 04:19:02;;;;;;;10.50;5.72;;;;;;;;;;6160892;23;20012;-84
2022/05/18 04:21:30;;;;;;;14.02;5.35;;;;;;;;;;6160720;23;20009;-85
2022/05/18 04:23:57;;;;;;;10.57;5.78;;;;;;;;;;6160794;23;20013;-84
2022/05/18 04:26:23;;;;;;;7.35;5.10;;;;;;;;;;6160637;23;20013;-84
2022/05/18 04:28:49;;;;;;;7.65;5.28;;;;;;;;;;6160523;23;20020;-80
2022/05/18 04:31:15;;;;;;;8.35;5.40;;;;;;;;;;6160891;23;20005;-85
2022/05/18 04:33:42;;;;;;;10.15;4.78;;;;;;;;;;6160252;23;20024;-85
2022/05/18 04:36:08;;;;;;;6.25;4.15;;;;;;;;;;6160393;23;20016;-84
2022/05/18 04:38:34;;;;;;;8.15;4.18;;;;;;;;;;6160546;23;20343;-84
2022/05/18 04:41:01;;;;;;;7.10;3.50;;;;;;;;;;6160611;23;20005;-81
2022/05/18 04:43:27;;;;;;;5.38;3.05;;;;;;;;;;6160367;23;20435;-84
2022/05/18 04:45:55;;;;;;;5.43;2.90;;;;;;;;;;6186691;23;20005;-82
2022/05/18 04:48:22;;;;;;;6.22;2.97;;;;;;;;;;6160445;23;20012;-83
2022/05/18 04:50:49;;;;;;;5.68;2.50;;;;;;;;;;6186919;23;20009;-85
2022/05/18 04:53:15;;;;;;;5.65;2.83;;;;;;;;;;6160502;23;20005;-83
2022/05/18 04:55:41;;;;;;;6.07;2.30;;;;;;;;;;6160973;23;20051;-83
2022/05/18 04:58:08;;;;;;;5.53;2.67;;;;;;;;;;6160447;23;20001;-85
2022/05/18 05:00:34;;;;;;;8.77;2.10;;;;;;;;;;6186647;23;20423;-86
2022/05/18 05:03:00;;;;;;;3.72;2.00;;;;;;;;;;6160640;23;20009;-87
2022/05/18 05:05:27;;;;;;;4.88;1.92;;;;;;;;;;6160299;23;20316;-84
2022/05/18 05:07:54;;;;;;;5.10;2.15;;;;;;;;;;6186415;23;20450;-83
2022/05/18 05:10:20;;;;;;;4.00;1.80;;;;;;;;;;6159752;23;20017;-83
2022/05/18 05:12:46;;;;;;;5.72;2.00;;;;;;;;;;6186147;23;20323;-86
2022/05/18 05:15:13;;;;;;;5.88;1.60;;;;;;;;;;6186666;23;20012;-85
2022/05/18 05:17:39;;;;;;;4.35;2.15;;;;;;;;;;6186453;23;20008;-84
2022/05/18 05:20:06;;;;;;;4.55;1.60;;;;;;;;;;6186517;23;20011;-84
2022/05/18 05:22:32;;;;;;;6.15;1.65;;;;;;;;;;6160131;23;20453;-81
2022/05/18 05:24:58;;;;;;;3.67;1.60;;;;;;;;;;6159509;23;20016;-84
2022/05/18 05:27:24;;;;;;;5.90;1.60;;;;;;;;;;6159776;23;20040;-81
2022/05/18 05:29:50;;;;;;;4.25;1.27;;;;;;;;;;6185716;23;20009;-84
2022/05/18 05:32:17;;;;;;;3.42;1.20;;;;;;;;;;6159599;23;20009;-80
2022/05/18 05:34:44;;;;;;;2.72;0.95;;;;;;;;;;6185942;23;20017;-81
2022/05/18 05:37:10;;;;;;;3.17;1.27;;;;;;;;;;6159884;23;20089;-78
2022/05/18 05:39:37;;;;;;;2.95;1.40;;;;;;;;;;6185945;23;20005;-87
2022/05/18 05:42:03;;;;;;;6.30;1.42;;;;;;;;;;6159867;23;20481;-83
2022/05/18 05:44:29;;;;;;;3.08;1.40;;;;;;;;;;6185012;23;20008;-82
2022/05/18 05:46:56;;;;;;;6.72;1.48;;;;;;;;;;6162144;23;20012;-84
2022/05/18 05:49:22;;;;;;;4.05;1.30;;;;;;;;;;6161623;23;20013;-83
2022/05/18 05:51:49;;;;;;;3.67;1.80;;;;;;;;;;6161681;23;20001;-85
2022/05/18 05:54:15;;;;;;;4.82;1.40;;;;;;;;;;6161769;23;20457;-84
2022/05/18 05:56:41;;;;;;;4.15;1.50;;;;;;;;;;6162098;23;20055;-85
2022/05/18 05:59:07;;;;;;;3.13;1.63;;;;;;;;;;6161496;23;20005;-83
2022/05/18 06:01:34;;;;;;;2.92;1.50;;;;;;;;;;6191681;23;20036;-81
2022/05/18 06:04:00;;;;;;;4.78;1.60;;;;;;;;;;6166464;23;20084;-81
2022/05/18 06:06:26;;;;;;;5.57;1.90;;;;;;;;;;6164777;23;20012;-80
2022/05/18 06:08:53;;;;;;;6.45;1.77;;;;;;;;;;6161326;23;20068;-84
2022/05/18 06:11:19;;;;;;;5.35;2.03;;;;;;;;;;6161638;23;20005;-83
2022/05/18 06:13:45;;;;;;;6.18;2.28;;;;;;;;;;6161361;23;20009;-81
2022/05/18 06:16:11;;;;;;;6.13;2.00;;;;;;;;;;6160901;23;20088;-80
2022/05/18 06:18:38;;;;;;;5.47;2.60;;;;;;;;;;6161596;23;20017;-84
2022/05/18 06:21:05;;;;;;;8.82;2.80;;;;;;;;;;6161331;23;20083;-81
2022/05/18 06:23:31;;;;;;;6.35;2.70;;;;;;;;;;6187245;23;20001;-82
2022/05/18 06:26:02;;;;;;;5.53;2.80;;;;;;;;;;6161129;23;20036;-80
2022/05/18 06:28:28;;;;;;;7.18;3.20;;;;;;;;;;6160891;23;20009;-80
2022/05/18 06:30:54;;;;;;;6.15;3.17;;;;;;;;;;6161006;23;20430;-81
2022/05/18 06:33:21;;;;;;;7.85;3.10;;;;;;;;;;6160579;23;20044;-82
2022/05/18 06:35:51;;;;;;;6.32;3.15;;;;;;;;;;6161150;23;20037;-79
2022/05/18 06:38:17;;;;;;;5.85;3.25;;;;;;;;;;6161154;23;20104;-79
2022/05/18 06:43:29;;;;;;;4.43;2.75;;;;;;;;;;6187718;23;20011;-79
2022/05/18 06:45:55;;;;;;;5.70;2.78;;;;;;;;;;6188036;23;20075;-80
2022/05/18 06:48:21;;;;;;;4.07;2.60;;;;;;;;;;6161329;23;20024;-86
2022/05/18 06:50:47;;;;;;;6.03;2.60;;;;;;;;;;6161296;23;20013;-86
2022/05/18 06:53:14;;;;;;;6.80;2.70;;;;;;;;;;6187298;23;20032;-85
2022/05/18 06:55:40;;;;;;;6.63;2.78;;;;;;;;;;6187449;23;20072;-87
2022/05/18 06:58:06;;;;;;;6.22;2.95;;;;;;;;;;6162010;23;20083;-86
2022/05/18 07:00:32;;;;;;;7.97;3.08;;;;;;;;;;6161915;23;20001;-89
2022/05/18 07:02:58;;;;;;;5.75;2.50;;;;;;;;;;6161276;23;20431;-91
2022/05/18 07:05:25;;;;;;;5.45;2.58;;;;;;;;;;6161699;23;20427;-85
2022/05/18 07:07:51;;;;;;;4.15;2.40;;;;;;;;;;6161214;23;20009;-83
2022/05/18 07:10:17;;;;;;;5.50;2.50;;;;;;;;;;6161429;23;20071;-87
2022/05/18 07:12:43;;;;;;;5.43;2.30;;;;;;;;;;6160602;23;20015;-83
2022/05/18 07:15:10;;;;;;;7.00;2.42;;;;;;;;;;6160066;23;20443;-82
2022/05/18 07:17:36;;;;;;;5.85;2.47;;;;;;;;;;6186883;23;20060;-81
2022/05/18 07:20:03;;;;;;;4.68;2.60;;;;;;;;;;6160540;23;20009;-81
2022/05/18 07:22:30;;;;;;;5.57;2.83;;;;;;;;;;6160606;23;20001;-81
2022/05/18 07:24:56;;;;;;;3.75;1.83;;;;;;;;;;6160459;23;20386;-83
2022/05/18 07:27:22;;;;;;;6.80;1.92;;;;;;;;;;6161315;23;20549;-82
2022/05/18 07:29:48;;;;;;;5.05;1.90;;;;;;;;;;6187463;23;20016;-84
2022/05/18 07:32:14;;;;;;;5.93;2.20;;;;;;;;;;6161293;23;20008;-81
2022/05/18 07:34:44;;;;;;;6.47;2.20;;;;;;;;;;6160666;23;20023;-84
2022/05/18 07:37:11;;;;;;;12.80;2.85;;;;;;;;;;6160637;23;20009;-81
2022/05/18 07:39:37;;;;;;;5.35;1.70;;;;;;;;;;6160686;23;20001;-85
2022/05/18 07:42:05;;;;;;;310.25;22.10;;;;;;;;;;6161262;23;20020;-84
2022/05/18 07:44:32;;;;;;;44.58;3.60;;;;;;;;;;6160470;23;20430;-86
2022/05/18 07:46:58;;;;;;;2.63;1.00;;;;;;;;;;6160071;23;20012;-79
2022/05/18 07:49:24;;;;;;;9.57;1.10;;;;;;;;;;6159366;23;20024;-79
2022/05/18 07:51:51;;;;;;;7.68;1.00;;;;;;;;;;6185779;23;20060;-81
2022/05/18 07:54:17;;;;;;;5.45;0.80;;;;;;;;;;6160007;23;20011;-82
2022/05/18 07:56:43;;;;;;;4.63;0.77;;;;;;;;;;6186428;23;20075;-83
2022/05/18 07:59:10;;;;;;;4.32;0.88;;;;;;;;;;6159952;23;20418;-83
2022/05/18 08:01:39;;;;;;;13.73;1.52;;;;;;;;;;6159759;23;20009;-82
2022/05/18 08:04:05;;;;;;;17.17;1.60;;;;;;;;;;6159923;23;20027;-82
2022/05/18 08:06:33;;;;;;;10.93;1.52;;;;;;;;;;6159931;23;20009;-84
2022/05/18 08:08:59;;;;;;;10.77;1.95;;;;;;;;;;6159592;23;20040;-83
2022/05/18 08:17:11;;;;;;;5.43;1.15;;;;;;;;;;6095599;23;20345;-79
2022/05/18 08:19:38;;;;;;;6.97;1.08;;;;;;;;;;6141714;23;20389;-83
2022/05/18 08:22:04;;;;;;;10.40;1.80;;;;;;;;;;6159728;23;20489;-80
2022/05/18 08:24:30;;;;;;;8.52;0.88;;;;;;;;;;6186185;23;20383;-80
2022/05/18 08:26:56;;;;;;;2.92;0.68;;;;;;;;;;6159666;23;20016;-80
2022/05/18 08:29:22;;;;;;;4.15;0.75;;;;;;;;;;6185866;23;20083;-79
2022/05/18 08:31:49;;;;;;;3.83;0.70;;;;;;;;;;6159409;23;20020;-82
2022/05/18 08:34:15;;;;;;;1.98;0.80;;;;;;;;;;6159261;23;20017;-80
2022/05/18 08:36:42;;;;;;;4.07;0.85;;;;;;;;;;6159574;23;20028;-80
2022/05/18 08:39:09;;;;;;;4.88;0.80;;;;;;;;;;6159678;23;20016;-80
2022/05/18 13:54:47;;;;;;;2.97;1.20;;;;;;;;;;6156320;23;20029;-88
2022/05/18 13:57:18;;;;;;;6.75;1.50;;;;;;;;;;6155879;23;20010;-88
2022/05/18 13:59:48;;;;;;;3.15;0.90;;;;;;;;;;6155780;23;20312;-91
2022/05/18 14:02:19;;;;;;;2.38;1.00;;;;;;;;;;6156261;23;20091;-92
2022/05/18 14:04:45;;;;;;;5.38;1.15;;;;;;;;;;6155691;23;20002;-94
2022/05/18 14:07:12;;;;;;;3.00;1.08;;;;;;;;;;6157178;23;20005;-93
2022/05/18 14:09:41;;;;;;;9.57;2.60;;;;;;;;;;6156857;23;20021;-84
2022/05/18 14:12:13;;;;;;;5.38;1.83;;;;;;;;;;6156859;23;20016;-87
2022/05/18 14:14:40;;;;;;;4.93;1.20;;;;;;;;;;6156741;23;20041;-83
2022/05/18 14:17:07;;;;;;;4.47;1.20;;;;;;;;;;6156657;23;20005;-86
2022/05/18 14:19:39;;;;;;;4.57;0.98;;;;;;;;;;6157548;23;20009;-92
2022/05/18 14:22:05;;;;;;;2.53;1.00;;;;;;;;;;6157869;23;20001;-93
2022/05/18 14:24:43;;;;;;;3.33;1.00;;;;;;;;;;6158714;23;20324;-88
2022/05/18 14:27:11;;;;;;;3.67;1.10;;;;;;;;;;6158350;23;20044;-87
2022/05/18 14:29:40;;;;;;;2.92;1.10;;;;;;;;;;6157688;23;20059;-96
2022/05/18 14:32:09;;;;;;;5.47;1.00;;;;;;;;;;6158098;23;20002;-87
2022/05/18 14:34:42;;;;;;;2.55;1.33;;;;;;;;;;6158483;23;20010;-93
2022/05/18 14:37:11;;;;;;;2.65;1.17;;;;;;;;;;6157679;23;20367;-94
2022/05/18 14:39:49;;;;;;;3.55;1.35;;;;;;;;;;6157540;23;20104;-96
2022/05/18 14:42:15;;;;;;;7.05;1.70;;;;;;;;;;6158163;23;20010;-95
2022/05/18 14:44:42;;;;;;;4.90;1.17;;;;;;;;;;6157609;23;20001;-91
2022/05/18 14:47:16;;;;;;;3.58;1.17;;;;;;;;;;6157397;23;20112;-88
2022/05/18 14:49:45;;;;;;;;;;;;;;;;;;6157857;23;20017;-95
2022/05/18 14:52:13;;;;;;;3.28;1.10;;;;;;;;;;6157935;23;19951;-87
2022/05/18 14:54:50;;;;;;;3.75;1.20;;;;;;;;;;6156640;23;20017;-92
2022/05/18 14:57:23;;;;;;;2.03;1.10;;;;;;;;;;6157300;23;20085;-94
2022/05/18 14:59:56;;;;;;;2.17;1.00;;;;;;;;;;6157447;23;20012;-95
2022/05/18 15:02:23;;;;;;;3.60;0.90;;;;;;;;;;6157371;23;20009;-93
2022/05/18 15:04:49;;;;;;;3.85;1.10;;;;;;;;;;6157060;23;20008;-91
2022/05/18 15:07:47;;;;;;;3.45;1.00;;;;;;;;;;6156550;23;20049;-95
2022/05/18 15:10:25;;;;;;;2.20;0.90;;;;;;;;;;6157345;23;20024;-93
2022/05/18 15:13:11;;;;;;;3.03;1.00;;;;;;;;;;6160901;23;20013;-94
2022/05/18 15:15:56;;;;;;;2.60;1.10;;;;;;;;;;6162308;23;20084;-94
2022/05/18 15:18:41;;;;;;;3.67;1.13;;;;;;;;;;6166381;23;20032;-87
2022/05/18 15:21:27;;;;;;;4.35;1.83;;;;;;;;;;6166510;23;20062;-89
2022/05/18 15:23:59;;;;;;;5.65;1.30;;;;;;;;;;6161381;23;20088;-88
2022/05/18 15:26:25;;;;;;;6.10;1.10;;;;;;;;;;6161020;23;20008;-84
2022/05/18 15:28:56;;;;;;;3.13;0.90;;;;;;;;;;6160556;23;20430;-81
2022/05/18 15:31:29;;;;;;;3.50;1.10;;;;;;;;;;6160650;23;20009;-84
2022/05/18 15:34:00;;;;;;;3.97;1.10;;;;;;;;;;6161019;23;20005;-91
2022/05/18 15:36:27;;;;;;;2.83;1.17;;;;;;;;;;6161472;23;20008;-85
2022/05/18 15:38:55;;;;;;;3.72;1.35;;;;;;;;;;6161208;23;20005;-91
2022/05/18 15:41:22;;;;;;;3.65;1.00;;;;;;;;;;6159478;23;20009;-87
2022/05/18 15:43:48;;;;;;;12.32;1.60;;;;;;;;;;6158939;23;20096;-80
2022/05/18 15:46:15;;;;;;;2.00;1.00;;;;;;;;;;6161033;23;20445;-93
2022/05/18 15:48:45;;;;;;;3.58;1.00;;;;;;;;;;6161895;23;20004;-93
2022/05/18 15:51:11;;;;;;;5.50;1.40;;;;;;;;;;6161558;23;20009;-91
2022/05/18 15:53:42;;;;;;;2.95;0.93;;;;;;;;;;6161430;23;20007;-94
2022/05/18 15:56:10;;;;;;;3.28;1.10;;;;;;;;;;6162279;23;20016;-90
2022/05/18 15:58:36;;;;;;;3.42;1.20;;;;;;;;;;6162193;23;20005;-90
2022/05/18 16:01:03;;;;;;;7.20;1.50;;;;;;;;;;6160647;23;20318;-85
2022/05/18 16:03:36;;;;;;;7.78;1.40;;;;;;;;;;6187164;23;19997;-90
2022/05/18 16:06:06;;;;;;;4.50;1.30;;;;;;;;;;6161913;23;20005;-93
2022/05/18 16:08:32;;;;;;;5.57;1.20;;;;;;;;;;6156005;23;20474;-94
2022/05/18 16:10:59;;;;;;;3.30;1.00;;;;;;;;;;6156534;23;20021;-95
2022/05/18 16:13:32;;;;;;;3.08;1.10;;;;;;;;;;6154253;23;20028;-95
2022/05/18 16:15:58;;;;;;;7.95;1.40;;;;;;;;;;6156009;23;20037;-93
2022/05/18 16:18:25;;;;;;;4.35;1.30;;;;;;;;;;6156453;23;20393;-93
2022/05/18 16:20:55;;;;;;;3.38;1.13;;;;;;;;;;6156737;23;20005;-90
2022/05/18 16:23:25;;;;;;;3.50;0.98;;;;;;;;;;6156581;23;20002;-94
2022/05/18 16:25:51;;;;;;;3.97;0.90;;;;;;;;;;6156872;23;20009;-95
2022/05/18 16:28:30;;;;;;;3.95;1.00;;;;;;;;;;6157520;23;20028;-94
2022/05/18 16:31:02;;;;;;;3.10;1.23;;;;;;;;;;6157344;23;20013;-92
2022/05/18 16:33:37;;;;;;;2.20;1.00;;;;;;;;;;6159556;23;20002;-95
2022/05/18 16:36:10;;;;;;;3.33;1.13;;;;;;;;;;6158358;23;20009;-93
2022/05/18 16:38:36;;;;;;;3.72;1.20;;;;;;;;;;6156107;23;20088;-94
2022/05/18 16:41:06;;;;;;;2.72;0.90;;;;;;;;;;6157574;23;20005;-94
2022/05/18 16:43:55;;;;;;;3.90;1.33;;;;;;;;;;6157281;23;20025;-92
2022/05/18 16:46:25;;;;;;;3.50;1.10;;;;;;;;;;6156111;23;20013;-91
2022/05/18 16:48:52;;;;;;;4.95;1.35;;;;;;;;;;6156703;23;20086;-91
2022/05/18 16:57:29;;;;;;;3.17;1.30;;;;;;;;;;6157536;23;20017;-94
2022/05/18 16:59:56;;;;;;;3.53;1.30;;;;;;;;;;6156232;23;20065;-89
2022/05/18 17:02:29;;;;;;;4.40;1.40;;;;;;;;;;6156518;23;20005;-88
2022/05/18 17:08:43;;;;;;;4.13;1.20;;;;;;;;;;6144318;23;20369;-94
2022/05/18 17:10:50;;;;;;;2.95;1.40;;;;;;;;;;6135532;23;20014;-90
2022/05/18 17:13:20;;;;;;;2.45;1.25;;;;;;;;;;6127925;23;20155;-88
2022/05/18 17:15:46;;;;;;;10.73;5.30;;;;;;;;;;6126020;23;20305;-91
2022/05/18 17:18:12;;;;;;;6.57;1.90;;;;;;;;;;6126154;23;20017;-90
2022/05/18 17:20:39;;;;;;;3.03;1.48;;;;;;;;;;6127077;23;20069;-88
2022/05/18 17:23:06;;;;;;;3.90;1.23;;;;;;;;;;6126356;23;20009;-93
2022/05/18 17:25:33;;;;;;;3.08;1.35;;;;;;;;;;6126174;23;20077;-91
2022/05/18 17:27:59;;;;;;;3.78;1.25;;;;;;;;;;6126695;23;20037;-90
2022/05/18 17:30:25;;;;;;;3.03;1.15;;;;;;;;;;6126198;23;20029;-94
2022/05/18 17:32:54;;;;;;;3.95;1.48;;;;;;;;;;6126544;23;20081;-93
2022/05/18 17:35:29;;;;;;;4.50;1.92;;;;;;;;;;6127398;23;20065;-93
2022/05/18 17:37:55;;;;;;;4.80;1.90;;;;;;;;;;6127528;23;20450;-88
2022/05/18 17:40:44;;;;;;;3.92;1.48;;;;;;;;;;6126924;23;20002;-87
2022/05/18 17:43:12;;;;;;;3.53;1.40;;;;;;;;;;6124153;23;20052;-93
2022/05/18 17:45:38;;;;;;;2.85;1.40;;;;;;;;;;6133745;23;20055;-93
2022/05/18 17:48:09;;;;;;;3.17;1.50;;;;;;;;;;6133250;23;20082;-92
2022/05/18 17:50:35;;;;;;;5.78;1.50;;;;;;;;;;6133584;23;20339;-91
2022/05/18 17:53:03;;;;;;;5.65;1.40;;;;;;;;;;6133028;23;20012;-92
2022/05/18 17:55:29;;;;;;;4.93;2.00;;;;;;;;;;6133092;23;20040;-92
2022/05/18 17:57:55;;;;;;;5.15;1.10;;;;;;;;;;6133611;23;20057;-96
2022/05/18 18:00:22;;;;;;;5.47;1.30;;;;;;;;;;6133499;23;20006;-88
2022/05/18 18:02:49;;;;;;;3.28;1.27;;;;;;;;;;6132869;23;20085;-94
2022/05/18 18:05:17;;;;;;;4.10;1.50;;;;;;;;;;6133433;23;20010;-89
2022/05/18 18:07:45;;;;;;;3.95;1.50;;;;;;;;;;6145787;23;20338;-92
2022/05/18 18:10:12;;;;;;;3.05;1.20;;;;;;;;;;6157641;23;20372;-92
2022/05/18 18:12:39;;;;;;;2.85;1.40;;;;;;;;;;6157926;23;20010;-92
2022/05/18 18:15:27;;;;;;;4.90;1.65;;;;;;;;;;6157020;23;20006;-88
2022/05/18 18:17:59;;;;;;;3.72;1.50;;;;;;;;;;6157226;23;20344;-87
2022/05/18 18:23:42;;;;;;;4.97;1.50;;;;;;;;;;6121652;23;20078;-89
2022/05/18 18:26:14;;;;;;;2.97;1.90;;;;;;;;;;6157654;23;20481;-89
2022/05/18 18:28:53;;;;;;;3.83;1.60;;;;;;;;;;6158460;23;20005;-92
2022/05/18 18:31:19;;;;;;;4.30;1.65;;;;;;;;;;6157750;23;20060;-89
2022/05/18 18:33:45;;;;;;;8.52;2.00;;;;;;;;;;6158576;23;20450;-91
2022/05/18 18:36:16;;;;;;;5.03;1.75;;;;;;;;;;6157562;23;20009;-91
2022/05/18 18:38:42;;;;;;;4.25;1.90;;;;;;;;;;6159553;23;20088;-93
2022/05/18 18:41:11;;;;;;;6.35;1.98;;;;;;;;;;6157934;23;20037;-89
2022/05/18 18:43:43;;;;;;;4.70;1.73;;;;;;;;;;6158570;23;20044;-93
2022/05/18 18:49:00;;;;;;;5.80;1.90;;;;;;;;;;6160303;23;20068;-92
2022/05/18 18:54:52;;;;;;;5.78;1.65;;;;;;;;;;6168458;23;20074;-91
2022/05/18 18:57:23;;;;;;;3.70;1.80;;;;;;;;;;6161944;23;20065;-92
2022/05/18 18:59:49;;;;;;;2.70;1.48;;;;;;;;;;6168273;23;20010;-95
2022/05/18 19:02:19;;;;;;;4.25;1.60;;;;;;;;;;6162496;23;20064;-93
2022/05/18 19:04:46;;;;;;;5.75;1.73;;;;;;;;;;6161976;23;20009;-94
2022/05/18 19:10:15;;;;;;;3.70;1.50;;;;;;;;;;6251166;23;20150;-93
2022/05/18 19:12:42;;;;;;;4.93;1.55;;;;;;;;;;6223204;23;20011;-94
2022/05/18 19:15:10;;;;;;;3.70;1.60;;;;;;;;;;6222415;23;20008;-94
2022/05/18 19:17:37;;;;;;;4.53;1.75;;;;;;;;;;6248176;23;20007;-90
2022/05/18 19:20:07;;;;;;;4.00;1.50;;;;;;;;;;6225546;23;20050;-89
2022/05/18 19:22:35;;;;;;;2.95;1.60;;;;;;;;;;6222095;23;20026;-87
2022/05/18 19:25:03;;;;;;;10.07;1.80;;;;;;;;;;6222397;23;20012;-93
2022/05/18 19:27:29;;;;;;;5.68;1.70;;;;;;;;;;6222654;23;20000;-95
2022/05/18 19:29:58;;;;;;;11.75;1.92;;;;;;;;;;6222646;23;20043;-95
2022/05/18 19:32:24;;;;;;;2.60;1.20;;;;;;;;;;6221865;23;20005;-95
2022/05/18 19:34:50;;;;;;;3.90;1.13;;;;;;;;;;6222498;23;20008;-96
2022/05/18 19:37:17;;;;;;;3.85;1.50;;;;;;;;;;6222276;23;20005;-95
2022/05/18 19:39:49;;;;;;;6.82;1.90;;;;;;;;;;6222057;23;20008;-94
2022/05/18 19:42:15;;;;;;;3.13;1.55;;;;;;;;;;6223554;23;20008;-95
2022/05/18 19:44:41;;;;;;;4.40;1.52;;;;;;;;;;6249399;23;20004;-93
2022/05/18 19:47:11;;;;;;;4.97;1.70;;;;;;;;;;6223183;23;20000;-94
2022/05/18 19:49:40;;;;;;;3.67;1.30;;;;;;;;;;6222041;23;20004;-92
2022/05/18 19:52:06;;;;;;;5.03;1.60;;;;;;;;;;6222135;23;20012;-89
2022/05/18 19:54:32;;;;;;;5.22;1.60;;;;;;;;;;6222084;23;20001;-88
2022/05/18 19:57:01;;;;;;;5.32;1.67;;;;;;;;;;6223023;23;20008;-95
2022/05/18 19:59:28;;;;;;;5.10;1.60;;;;;;;;;;6222347;23;20054;-87
2022/05/18 20:01:54;;;;;;;3.42;1.55;;;;;;;;;;6222263;23;20556;-95
2022/05/18 20:04:20;;;;;;;4.53;1.60;;;;;;;;;;6222080;23;20330;-95
2022/05/18 20:06:46;;;;;;;5.30;1.67;;;;;;;;;;6221719;23;20001;-94
2022/05/18 20:09:12;;;;;;;5.68;1.67;;;;;;;;;;6216561;23;20021;-94
2022/05/18 20:11:39;;;;;;;4.65;1.58;;;;;;;;;;6217015;23;20011;-92
2022/05/18 20:14:06;;;;;;;4.13;1.50;;;;;;;;;;6216869;23;20064;-88
2022/05/18 20:16:33;;;;;;;4.78;1.50;;;;;;;;;;6217137;23;20000;-90
2022/05/18 20:19:02;;;;;;;6.05;1.48;;;;;;;;;;6216586;23;20031;-93
2022/05/18 20:21:56;;;;;;;2.70;1.40;;;;;;;;;;6216562;23;20088;-93
2022/05/18 20:24:25;;;;;;;8.05;1.70;;;;;;;;;;6216772;23;20005;-93
2022/05/18 20:26:51;;;;;;;2.78;1.60;;;;;;;;;;6218407;23;20007;-91
2022/05/18 20:29:21;;;;;;;6.47;1.63;;;;;;;;;;6216675;23;20015;-95
2022/05/18 20:31:49;;;;;;;2.97;1.50;;;;;;;;;;6217535;23;20503;-87
2022/05/18 20:34:22;;;;;;;3.78;1.58;;;;;;;;;;6218117;23;20005;-93
2022/05/18 20:36:59;;;;;;;5.25;1.77;;;;;;;;;;6204870;23;20000;-94